sensor_id;sensor_type;location;lat;lon;timestamp;pressure;altitude;pressure_sealevel;temperature;humidity
63433;BME280;49564;59.406;24.724;2023-11-18T00:01:32;102084.08;;;2.04;32.42
63433;BME280;49564;59.406;24.724;2023-11-18T00:03:59;102084.69;;;2.29;32.30
63433;BME280;49564;59.406;24.724;2023-11-18T00:06:26;102087.01;;;1.99;32.51
63433;BME280;49564;59.406;24.724;2023-11-18T00:08:54;102087.32;;;2.20;32.43
63433;BME280;49564;59.406;24.724;2023-11-18T00:11:22;102089.54;;;2.21;32.39
63433;BME280;49564;59.406;24.724;2023-11-18T00:13:49;102089.71;;;2.00;32.36
63433;BME280;49564;59.406;24.724;2023-11-18T00:16:16;102091.46;;;2.04;32.32
63433;BME280;49564;59.406;24.724;2023-11-18T00:18:43;102094.23;;;2.21;32.33
63433;BME280;49564;59.406;24.724;2023-11-18T00:21:11;102101.58;;;2.24;32.51
63433;BME280;49564;59.406;24.724;2023-11-18T00:23:39;102105.19;;;2.02;32.49
63433;BME280;49564;59.406;24.724;2023-11-18T00:26:06;102100.71;;;1.86;32.42
63433;BME280;49564;59.406;24.724;2023-11-18T00:28:33;102099.48;;;2.24;32.61
63433;BME280;49564;59.406;24.724;2023-11-18T00:31:02;102098.98;;;2.07;32.38
63433;BME280;49564;59.406;24.724;2023-11-18T00:33:29;102103.15;;;1.80;32.39
63433;BME280;49564;59.406;24.724;2023-11-18T00:35:56;102102.36;;;1.83;32.64
63433;BME280;49564;59.406;24.724;2023-11-18T00:38:24;102098.13;;;2.01;32.34
63433;BME280;49564;59.406;24.724;2023-11-18T00:40:51;102095.21;;;1.78;32.40
63433;BME280;49564;59.406;24.724;2023-11-18T00:43:18;102093.65;;;1.93;32.40
63433;BME280;49564;59.406;24.724;2023-11-18T00:45:45;102092.04;;;1.71;32.37
63433;BME280;49564;59.406;24.724;2023-11-18T00:48:13;102091.96;;;1.90;32.40
63433;BME280;49564;59.406;24.724;2023-11-18T00:50:40;102089.09;;;1.66;32.34
63433;BME280;49564;59.406;24.724;2023-11-18T00:53:07;102084.68;;;2.19;32.49
63433;BME280;49564;59.406;24.724;2023-11-18T00:55:35;102081.32;;;1.79;32.31
63433;BME280;49564;59.406;24.724;2023-11-18T00:58:03;102081.68;;;1.69;32.19
63433;BME280;49564;59.406;24.724;2023-11-18T01:00:31;102076.13;;;1.99;32.39
63433;BME280;49564;59.406;24.724;2023-11-18T01:02:58;102076.94;;;1.92;32.44
63433;BME280;49564;59.406;24.724;2023-11-18T01:05:25;102079.77;;;2.10;32.28
63433;BME280;49564;59.406;24.724;2023-11-18T01:07:53;102080.52;;;1.88;32.35
63433;BME280;49564;59.406;24.724;2023-11-18T01:10:20;102077.91;;;1.84;32.37
63433;BME280;49564;59.406;24.724;2023-11-18T01:12:49;102082.41;;;1.80;32.44
63433;BME280;49564;59.406;24.724;2023-11-18T01:15:16;102086.46;;;1.82;32.40
63433;BME280;49564;59.406;24.724;2023-11-18T01:17:44;102084.07;;;1.50;32.51
63433;BME280;49564;59.406;24.724;2023-11-18T01:20:11;102084.42;;;1.76;32.42
63433;BME280;49564;59.406;24.724;2023-11-18T01:22:38;102083.81;;;2.02;32.30
63433;BME280;49564;59.406;24.724;2023-11-18T01:25:07;102082.19;;;1.95;32.47
63433;BME280;49564;59.406;24.724;2023-11-18T01:27:35;102085.88;;;1.70;32.51
63433;BME280;49564;59.406;24.724;2023-11-18T01:30:02;102089.60;;;1.77;32.30
63433;BME280;49564;59.406;24.724;2023-11-18T01:32:29;102091.31;;;1.82;32.47
63433;BME280;49564;59.406;24.724;2023-11-18T01:34:56;102092.10;;;1.89;32.50
63433;BME280;49564;59.406;24.724;2023-11-18T01:37:23;102089.98;;;1.78;32.36
63433;BME280;49564;59.406;24.724;2023-11-18T01:39:50;102090.30;;;1.99;32.46
63433;BME280;49564;59.406;24.724;2023-11-18T01:42:17;102087.30;;;1.65;32.32
63433;BME280;49564;59.406;24.724;2023-11-18T01:44:45;102091.35;;;1.60;32.42
63433;BME280;49564;59.406;24.724;2023-11-18T01:47:13;102090.05;;;1.66;32.52
63433;BME280;49564;59.406;24.724;2023-11-18T01:49:41;102093.31;;;1.34;32.40
63433;BME280;49564;59.406;24.724;2023-11-18T01:52:08;102090.33;;;1.67;32.54
63433;BME280;49564;59.406;24.724;2023-11-18T01:54:38;102091.29;;;1.59;32.40
63433;BME280;49564;59.406;24.724;2023-11-18T01:57:06;102089.91;;;1.90;32.26
63433;BME280;49564;59.406;24.724;2023-11-18T01:59:33;102087.31;;;1.54;32.28
63433;BME280;49564;59.406;24.724;2023-11-18T02:02:01;102082.45;;;1.80;32.50
63433;BME280;49564;59.406;24.724;2023-11-18T02:04:29;102085.61;;;1.56;32.29
63433;BME280;49564;59.406;24.724;2023-11-18T02:06:56;102087.02;;;1.51;32.44
63433;BME280;49564;59.406;24.724;2023-11-18T02:09:24;102082.03;;;1.46;32.36
63433;BME280;49564;59.406;24.724;2023-11-18T02:11:54;102076.45;;;1.78;32.32
63433;BME280;49564;59.406;24.724;2023-11-18T02:14:27;102071.05;;;1.75;32.08
63433;BME280;49564;59.406;24.724;2023-11-18T02:17:00;102069.77;;;1.71;32.12
63433;BME280;49564;59.406;24.724;2023-11-18T02:19:29;102069.25;;;1.66;32.11
63433;BME280;49564;59.406;24.724;2023-11-18T02:21:58;102070.96;;;1.65;32.18
63433;BME280;49564;59.406;24.724;2023-11-18T02:24:28;102070.75;;;1.58;32.21
63433;BME280;49564;59.406;24.724;2023-11-18T02:26:57;102070.00;;;1.37;32.35
63433;BME280;49564;59.406;24.724;2023-11-18T02:29:26;102073.53;;;1.62;32.36
63433;BME280;49564;59.406;24.724;2023-11-18T02:32:13;102073.96;;;1.62;32.29
63433;BME280;49564;59.406;24.724;2023-11-18T02:34:48;102074.37;;;1.54;32.20
63433;BME280;49564;59.406;24.724;2023-11-18T02:37:17;102072.27;;;1.53;32.22
63433;BME280;49564;59.406;24.724;2023-11-18T02:39:47;102073.05;;;1.22;32.36
63433;BME280;49564;59.406;24.724;2023-11-18T02:42:20;102071.30;;;1.53;32.37
63433;BME280;49564;59.406;24.724;2023-11-18T02:44:49;102067.55;;;1.49;32.32
63433;BME280;49564;59.406;24.724;2023-11-18T02:47:18;102066.46;;;1.47;32.44
63433;BME280;49564;59.406;24.724;2023-11-18T02:49:45;102066.00;;;1.37;32.37
63433;BME280;49564;59.406;24.724;2023-11-18T02:52:12;102063.67;;;1.36;32.61
63433;BME280;49564;59.406;24.724;2023-11-18T02:54:40;102061.32;;;1.38;32.37
63433;BME280;49564;59.406;24.724;2023-11-18T02:57:07;102064.21;;;1.36;32.44
63433;BME280;49564;59.406;24.724;2023-11-18T02:59:34;102060.37;;;1.34;32.50
63433;BME280;49564;59.406;24.724;2023-11-18T03:02:01;102057.26;;;1.35;32.36
63433;BME280;49564;59.406;24.724;2023-11-18T03:04:28;102056.79;;;1.02;32.55
63433;BME280;49564;59.406;24.724;2023-11-18T03:06:56;102056.43;;;1.16;32.41
63433;BME280;49564;59.406;24.724;2023-11-18T03:09:23;102054.28;;;1.39;32.35
63433;BME280;49564;59.406;24.724;2023-11-18T03:11:51;102051.51;;;1.42;32.45
63433;BME280;49564;59.406;24.724;2023-11-18T03:14:18;102049.13;;;1.35;32.18
63433;BME280;49564;59.406;24.724;2023-11-18T03:16:45;102049.52;;;1.30;32.35
63433;BME280;49564;59.406;24.724;2023-11-18T03:19:12;102049.72;;;1.28;32.40
63433;BME280;49564;59.406;24.724;2023-11-18T03:21:40;102049.92;;;1.20;32.36
63433;BME280;49564;59.406;24.724;2023-11-18T03:24:08;102048.10;;;1.00;32.37
63433;BME280;49564;59.406;24.724;2023-11-18T03:26:35;102049.51;;;1.22;32.38
63433;BME280;49564;59.406;24.724;2023-11-18T03:29:03;102047.56;;;1.15;32.38
63433;BME280;49564;59.406;24.724;2023-11-18T03:31:29;102048.14;;;1.20;32.35
63433;BME280;49564;59.406;24.724;2023-11-18T03:33:57;102047.86;;;1.25;32.41
63433;BME280;49564;59.406;24.724;2023-11-18T03:36:24;102050.65;;;1.24;32.30
63433;BME280;49564;59.406;24.724;2023-11-18T03:38:52;102050.25;;;1.33;32.49
63433;BME280;49564;59.406;24.724;2023-11-18T03:41:19;102051.87;;;1.28;32.28
63433;BME280;49564;59.406;24.724;2023-11-18T03:43:46;102054.96;;;1.31;32.03
63433;BME280;49564;59.406;24.724;2023-11-18T03:46:13;102052.47;;;1.29;32.23
63433;BME280;49564;59.406;24.724;2023-11-18T03:48:41;102050.81;;;1.24;32.09
63433;BME280;49564;59.406;24.724;2023-11-18T03:51:08;102050.97;;;1.29;32.27
63433;BME280;49564;59.406;24.724;2023-11-18T03:53:35;102052.80;;;1.30;31.99
63433;BME280;49564;59.406;24.724;2023-11-18T03:56:03;102050.85;;;1.29;32.01
63433;BME280;49564;59.406;24.724;2023-11-18T03:58:30;102044.90;;;1.19;32.04
63433;BME280;49564;59.406;24.724;2023-11-18T04:00:57;102044.59;;;1.20;31.86
63433;BME280;49564;59.406;24.724;2023-11-18T04:03:24;102042.76;;;1.08;31.96
63433;BME280;49564;59.406;24.724;2023-11-18T04:05:52;102044.16;;;1.02;32.06
63433;BME280;49564;59.406;24.724;2023-11-18T04:08:20;102038.32;;;0.98;31.92
63433;BME280;49564;59.406;24.724;2023-11-18T04:10:47;102032.85;;;1.20;31.95
63433;BME280;49564;59.406;24.724;2023-11-18T04:13:15;102031.92;;;1.17;32.00
63433;BME280;49564;59.406;24.724;2023-11-18T04:15:42;102032.42;;;1.19;31.77
63433;BME280;49564;59.406;24.724;2023-11-18T04:18:09;102031.37;;;1.16;31.73
63433;BME280;49564;59.406;24.724;2023-11-18T04:20:36;102029.65;;;1.16;31.71
63433;BME280;49564;59.406;24.724;2023-11-18T04:23:03;102028.44;;;1.13;31.86
63433;BME280;49564;59.406;24.724;2023-11-18T04:25:31;102024.42;;;1.09;31.65
63433;BME280;49564;59.406;24.724;2023-11-18T04:27:58;102020.86;;;1.02;31.93
63433;BME280;49564;59.406;24.724;2023-11-18T04:30:25;102017.58;;;1.08;31.98
63433;BME280;49564;59.406;24.724;2023-11-18T04:32:51;102017.90;;;1.01;31.91
63433;BME280;49564;59.406;24.724;2023-11-18T04:35:19;102017.20;;;1.02;32.03
63433;BME280;49564;59.406;24.724;2023-11-18T04:37:46;102014.58;;;1.09;31.96
63433;BME280;49564;59.406;24.724;2023-11-18T04:40:15;102018.78;;;0.98;32.14
63433;BME280;49564;59.406;24.724;2023-11-18T04:42:42;102019.93;;;1.01;32.19
63433;BME280;49564;59.406;24.724;2023-11-18T04:45:09;102018.67;;;1.04;32.05
63433;BME280;49564;59.406;24.724;2023-11-18T04:47:37;102017.47;;;1.01;32.31
63433;BME280;49564;59.406;24.724;2023-11-18T04:50:06;102014.78;;;1.01;32.03
63433;BME280;49564;59.406;24.724;2023-11-18T04:52:33;102012.52;;;0.95;32.06
63433;BME280;49564;59.406;24.724;2023-11-18T04:55:01;102012.78;;;1.01;31.95
63433;BME280;49564;59.406;24.724;2023-11-18T04:57:29;102010.58;;;0.39;32.14
63433;BME280;49564;59.406;24.724;2023-11-18T04:59:57;102011.01;;;1.01;32.03
63433;BME280;49564;59.406;24.724;2023-11-18T05:02:24;102010.08;;;1.12;32.00
63433;BME280;49564;59.406;24.724;2023-11-18T05:04:51;102008.64;;;1.07;32.24
63433;BME280;49564;59.406;24.724;2023-11-18T05:07:18;102006.09;;;1.05;32.00
63433;BME280;49564;59.406;24.724;2023-11-18T05:09:46;102005.14;;;1.50;32.06
63433;BME280;49564;59.406;24.724;2023-11-18T05:12:13;102009.02;;;1.02;32.08
63433;BME280;49564;59.406;24.724;2023-11-18T05:14:40;102012.15;;;1.09;31.98
63433;BME280;49564;59.406;24.724;2023-11-18T05:17:07;102012.30;;;1.35;32.19
63433;BME280;49564;59.406;24.724;2023-11-18T05:19:35;102011.56;;;1.03;32.14
63433;BME280;49564;59.406;24.724;2023-11-18T05:22:01;102010.95;;;0.88;32.19
63433;BME280;49564;59.406;24.724;2023-11-18T05:24:29;102013.11;;;0.96;32.30
63433;BME280;49564;59.406;24.724;2023-11-18T05:26:56;102012.57;;;0.89;32.28
63433;BME280;49564;59.406;24.724;2023-11-18T05:29:23;102012.46;;;1.01;32.26
63433;BME280;49564;59.406;24.724;2023-11-18T05:31:51;102009.66;;;0.95;32.29
63433;BME280;49564;59.406;24.724;2023-11-18T05:34:18;102009.81;;;0.99;32.18
63433;BME280;49564;59.406;24.724;2023-11-18T05:36:45;102008.42;;;0.88;32.21
63433;BME280;49564;59.406;24.724;2023-11-18T05:39:13;102008.13;;;0.80;32.25
63433;BME280;49564;59.406;24.724;2023-11-18T05:41:40;102003.56;;;1.30;32.14
63433;BME280;49564;59.406;24.724;2023-11-18T05:44:07;102005.62;;;0.76;32.01
63433;BME280;49564;59.406;24.724;2023-11-18T05:46:34;102009.72;;;0.77;32.16
63433;BME280;49564;59.406;24.724;2023-11-18T05:49:03;102008.19;;;1.30;32.12
63433;BME280;49564;59.406;24.724;2023-11-18T05:51:31;102008.17;;;0.78;32.17
63433;BME280;49564;59.406;24.724;2023-11-18T05:53:58;102011.50;;;0.90;32.22
63433;BME280;49564;59.406;24.724;2023-11-18T05:56:25;102010.33;;;0.92;32.11
63433;BME280;49564;59.406;24.724;2023-11-18T05:58:52;102015.27;;;0.97;32.36
63433;BME280;49564;59.406;24.724;2023-11-18T06:01:20;102014.90;;;0.91;32.05
63433;BME280;49564;59.406;24.724;2023-11-18T06:03:47;102016.01;;;0.77;32.23
63433;BME280;49564;59.406;24.724;2023-11-18T06:06:15;102016.85;;;0.81;32.09
63433;BME280;49564;59.406;24.724;2023-11-18T06:08:43;102019.74;;;1.03;32.02
63433;BME280;49564;59.406;24.724;2023-11-18T06:11:11;102020.13;;;0.86;31.90
63433;BME280;49564;59.406;24.724;2023-11-18T06:13:40;102019.56;;;0.83;31.98
63433;BME280;49564;59.406;24.724;2023-11-18T06:16:08;102016.57;;;0.86;31.92
63433;BME280;49564;59.406;24.724;2023-11-18T06:18:35;102014.23;;;0.77;31.93
63433;BME280;49564;59.406;24.724;2023-11-18T06:21:04;102013.35;;;0.69;32.08
63433;BME280;49564;59.406;24.724;2023-11-18T06:23:32;102012.14;;;0.66;32.13
63433;BME280;49564;59.406;24.724;2023-11-18T06:25:59;102011.00;;;0.71;32.19
63433;BME280;49564;59.406;24.724;2023-11-18T06:28:27;102009.82;;;0.71;32.13
63433;BME280;49564;59.406;24.724;2023-11-18T06:30:54;102012.75;;;0.68;32.54
63433;BME280;49564;59.406;24.724;2023-11-18T06:33:21;102019.69;;;0.74;32.40
63433;BME280;49564;59.406;24.724;2023-11-18T06:35:49;102020.41;;;0.93;32.23
63433;BME280;49564;59.406;24.724;2023-11-18T06:38:16;102018.56;;;0.91;32.26
63433;BME280;49564;59.406;24.724;2023-11-18T06:40:43;102019.75;;;0.92;32.32
63433;BME280;49564;59.406;24.724;2023-11-18T06:43:11;102021.30;;;0.91;32.31
63433;BME280;49564;59.406;24.724;2023-11-18T06:45:42;102025.30;;;0.99;32.32
63433;BME280;49564;59.406;24.724;2023-11-18T06:48:09;102030.04;;;1.05;32.44
63433;BME280;49564;59.406;24.724;2023-11-18T06:50:37;102031.04;;;1.03;32.40
63433;BME280;49564;59.406;24.724;2023-11-18T06:53:04;102031.81;;;1.23;32.23
63433;BME280;49564;59.406;24.724;2023-11-18T06:55:32;102034.11;;;1.35;32.26
63433;BME280;49564;59.406;24.724;2023-11-18T06:57:59;102038.04;;;1.48;32.35
63433;BME280;49564;59.406;24.724;2023-11-18T07:00:26;102033.35;;;1.97;32.20
63433;BME280;49564;59.406;24.724;2023-11-18T07:02:54;102034.21;;;2.37;31.81
63433;BME280;49564;59.406;24.724;2023-11-18T07:05:22;102035.95;;;2.73;31.54
63433;BME280;49564;59.406;24.724;2023-11-18T07:07:49;102035.56;;;2.94;31.08
63433;BME280;49564;59.406;24.724;2023-11-18T07:10:16;102032.82;;;3.37;30.73
63433;BME280;49564;59.406;24.724;2023-11-18T07:12:44;102030.91;;;3.48;30.35
63433;BME280;49564;59.406;24.724;2023-11-18T07:15:11;102027.97;;;3.08;30.22
63433;BME280;49564;59.406;24.724;2023-11-18T07:17:38;102028.47;;;2.94;30.08
63433;BME280;49564;59.406;24.724;2023-11-18T07:20:06;102029.39;;;3.36;30.07
63433;BME280;49564;59.406;24.724;2023-11-18T07:22:34;102030.73;;;3.09;30.14
63433;BME280;49564;59.406;24.724;2023-11-18T07:25:00;102033.35;;;3.21;30.27
63433;BME280;49564;59.406;24.724;2023-11-18T07:27:28;102031.50;;;3.56;30.21
63433;BME280;49564;59.406;24.724;2023-11-18T07:29:55;102030.79;;;3.32;30.24
63433;BME280;49564;59.406;24.724;2023-11-18T07:32:23;102038.12;;;3.76;30.31
63433;BME280;49564;59.406;24.724;2023-11-18T07:34:50;102037.19;;;3.23;30.25
63433;BME280;49564;59.406;24.724;2023-11-18T07:37:17;102035.97;;;3.31;30.26
63433;BME280;49564;59.406;24.724;2023-11-18T07:39:45;102045.48;;;3.31;30.16
63433;BME280;49564;59.406;24.724;2023-11-18T07:42:12;102049.72;;;3.24;30.32
63433;BME280;49564;59.406;24.724;2023-11-18T07:44:40;102047.80;;;3.34;30.26
63433;BME280;49564;59.406;24.724;2023-11-18T07:47:07;102045.85;;;3.28;30.36
63433;BME280;49564;59.406;24.724;2023-11-18T07:49:35;102044.87;;;3.48;30.48
63433;BME280;49564;59.406;24.724;2023-11-18T07:52:02;102044.88;;;3.30;30.39
63433;BME280;49564;59.406;24.724;2023-11-18T07:54:29;102045.07;;;3.40;30.43
63433;BME280;49564;59.406;24.724;2023-11-18T07:56:57;102047.73;;;3.45;30.42
63433;BME280;49564;59.406;24.724;2023-11-18T07:59:24;102047.62;;;3.47;30.44
63433;BME280;49564;59.406;24.724;2023-11-18T08:01:51;102045.27;;;3.57;30.35
63433;BME280;49564;59.406;24.724;2023-11-18T08:04:19;102043.05;;;3.54;30.30
63433;BME280;49564;59.406;24.724;2023-11-18T08:06:46;102041.59;;;3.54;30.35
63433;BME280;49564;59.406;24.724;2023-11-18T08:09:13;102042.68;;;3.57;30.35
63433;BME280;49564;59.406;24.724;2023-11-18T08:11:40;102044.25;;;3.59;30.32
63433;BME280;49564;59.406;24.724;2023-11-18T08:14:07;102047.10;;;3.28;30.31
63433;BME280;49564;59.406;24.724;2023-11-18T08:16:34;102050.35;;;3.58;30.28
63433;BME280;49564;59.406;24.724;2023-11-18T08:19:02;102059.91;;;3.80;30.29
63433;BME280;49564;59.406;24.724;2023-11-18T08:21:30;102061.05;;;3.61;30.24
63433;BME280;49564;59.406;24.724;2023-11-18T08:23:57;102062.61;;;3.58;30.27
63433;BME280;49564;59.406;24.724;2023-11-18T08:26:25;102064.60;;;3.54;30.33
63433;BME280;49564;59.406;24.724;2023-11-18T08:28:53;102064.11;;;3.52;30.42
63433;BME280;49564;59.406;24.724;2023-11-18T08:31:20;102064.47;;;3.47;30.49
63433;BME280;49564;59.406;24.724;2023-11-18T08:33:48;102062.86;;;3.52;30.59
63433;BME280;49564;59.406;24.724;2023-11-18T08:36:15;102067.17;;;3.46;30.58
63433;BME280;49564;59.406;24.724;2023-11-18T08:38:42;102071.44;;;3.47;30.53
63433;BME280;49564;59.406;24.724;2023-11-18T08:41:09;102073.82;;;3.32;30.63
63433;BME280;49564;59.406;24.724;2023-11-18T08:43:37;102074.96;;;3.54;30.68
63433;BME280;49564;59.406;24.724;2023-11-18T08:46:04;102075.62;;;3.36;30.65
63433;BME280;49564;59.406;24.724;2023-11-18T08:48:32;102077.40;;;3.35;30.74
63433;BME280;49564;59.406;24.724;2023-11-18T08:50:59;102081.87;;;3.32;30.76
63433;BME280;49564;59.406;24.724;2023-11-18T08:53:26;102078.20;;;3.33;30.56
63433;BME280;49564;59.406;24.724;2023-11-18T08:55:53;102076.85;;;3.81;30.68
63433;BME280;49564;59.406;24.724;2023-11-18T08:58:20;102076.76;;;3.37;30.66
63433;BME280;49564;59.406;24.724;2023-11-18T09:00:49;102075.07;;;3.54;30.80
63433;BME280;49564;59.406;24.724;2023-11-18T09:03:18;102073.30;;;3.36;30.80
63433;BME280;49564;59.406;24.724;2023-11-18T09:05:47;102065.42;;;3.60;30.78
63433;BME280;49564;59.406;24.724;2023-11-18T09:08:14;102063.43;;;3.15;30.66
63433;BME280;49564;59.406;24.724;2023-11-18T09:10:41;102060.95;;;3.44;30.68
63433;BME280;49564;59.406;24.724;2023-11-18T09:13:09;102058.35;;;3.40;30.51
63433;BME280;49564;59.406;24.724;2023-11-18T09:15:36;102060.14;;;3.43;30.66
63433;BME280;49564;59.406;24.724;2023-11-18T09:18:04;102060.47;;;3.67;30.61
63433;BME280;49564;59.406;24.724;2023-11-18T09:20:31;102058.47;;;3.45;30.46
63433;BME280;49564;59.406;24.724;2023-11-18T09:22:58;102056.37;;;3.68;30.57
63433;BME280;49564;59.406;24.724;2023-11-18T09:25:25;102054.38;;;3.71;30.37
63433;BME280;49564;59.406;24.724;2023-11-18T09:27:53;102053.89;;;3.95;30.44
63433;BME280;49564;59.406;24.724;2023-11-18T09:30:19;102054.15;;;3.66;30.41
63433;BME280;49564;59.406;24.724;2023-11-18T09:32:47;102053.92;;;3.40;30.44
63433;BME280;49564;59.406;24.724;2023-11-18T09:35:14;102050.64;;;3.43;30.08
63433;BME280;49564;59.406;24.724;2023-11-18T09:37:41;102047.00;;;3.37;30.11
63433;BME280;49564;59.406;24.724;2023-11-18T09:40:13;102045.26;;;3.33;30.21
63433;BME280;49564;59.406;24.724;2023-11-18T09:42:41;102038.57;;;3.33;30.01
63433;BME280;49564;59.406;24.724;2023-11-18T09:45:08;102041.76;;;3.58;30.07
63433;BME280;49564;59.406;24.724;2023-11-18T09:47:37;102041.05;;;3.30;30.03
63433;BME280;49564;59.406;24.724;2023-11-18T09:50:10;102042.12;;;3.78;30.07
63433;BME280;49564;59.406;24.724;2023-11-18T09:52:42;102037.01;;;3.35;30.11
63433;BME280;49564;59.406;24.724;2023-11-18T09:55:18;102034.68;;;3.31;29.89
63433;BME280;49564;59.406;24.724;2023-11-18T09:57:52;102032.10;;;3.37;29.92
63433;BME280;49564;59.406;24.724;2023-11-18T10:00:23;102029.66;;;3.55;29.89
63433;BME280;49564;59.406;24.724;2023-11-18T10:02:54;102031.77;;;3.34;29.93
63433;BME280;49564;59.406;24.724;2023-11-18T10:05:21;102026.41;;;3.30;30.01
63433;BME280;49564;59.406;24.724;2023-11-18T10:07:49;102022.26;;;3.54;29.99
63433;BME280;49564;59.406;24.724;2023-11-18T10:10:16;102023.93;;;3.80;29.91
63433;BME280;49564;59.406;24.724;2023-11-18T10:12:46;102023.98;;;3.77;29.98
63433;BME280;49564;59.406;24.724;2023-11-18T10:15:14;102021.34;;;3.32;30.00
63433;BME280;49564;59.406;24.724;2023-11-18T10:17:42;102020.76;;;3.38;29.97
63433;BME280;49564;59.406;24.724;2023-11-18T10:20:11;102018.69;;;3.53;29.93
63433;BME280;49564;59.406;24.724;2023-11-18T10:22:38;102017.36;;;3.37;29.67
63433;BME280;49564;59.406;24.724;2023-11-18T10:25:06;102018.22;;;3.37;29.83
63433;BME280;49564;59.406;24.724;2023-11-18T10:27:34;102018.33;;;3.37;29.74
63433;BME280;49564;59.406;24.724;2023-11-18T10:30:05;102017.62;;;3.36;29.79
63433;BME280;49564;59.406;24.724;2023-11-18T10:32:32;102016.49;;;3.35;29.60
63433;BME280;49564;59.406;24.724;2023-11-18T10:34:59;102015.19;;;3.33;29.75
63433;BME280;49564;59.406;24.724;2023-11-18T10:37:27;102015.67;;;3.32;29.73
63433;BME280;49564;59.406;24.724;2023-11-18T10:39:54;102014.48;;;3.54;29.64
63433;BME280;49564;59.406;24.724;2023-11-18T10:42:21;102012.60;;;3.58;29.73
63433;BME280;49564;59.406;24.724;2023-11-18T10:44:54;102012.91;;;3.27;29.86
63433;BME280;49564;59.406;24.724;2023-11-18T10:47:22;102013.78;;;3.31;29.84
63433;BME280;49564;59.406;24.724;2023-11-18T10:49:51;102012.99;;;3.15;29.75
63433;BME280;49564;59.406;24.724;2023-11-18T10:52:20;102009.44;;;3.44;29.88
63433;BME280;49564;59.406;24.724;2023-11-18T10:54:50;102004.32;;;3.50;29.79
63433;BME280;49564;59.406;24.724;2023-11-18T10:57:19;102002.92;;;3.56;29.90
63433;BME280;49564;59.406;24.724;2023-11-18T10:59:58;102002.11;;;3.55;29.78
63433;BME280;49564;59.406;24.724;2023-11-18T11:02:28;101998.94;;;3.66;29.71
63433;BME280;49564;59.406;24.724;2023-11-18T11:04:57;101997.59;;;3.61;29.78
63433;BME280;49564;59.406;24.724;2023-11-18T11:07:25;101993.21;;;3.83;29.72
63433;BME280;49564;59.406;24.724;2023-11-18T11:09:53;101992.72;;;3.59;29.85
63433;BME280;49564;59.406;24.724;2023-11-18T11:12:20;101990.56;;;3.56;29.94
63433;BME280;49564;59.406;24.724;2023-11-18T11:14:54;101989.26;;;3.57;29.94
63433;BME280;49564;59.406;24.724;2023-11-18T11:17:27;101988.02;;;3.58;29.87
63433;BME280;49564;59.406;24.724;2023-11-18T11:20:00;101987.37;;;3.58;29.93
63433;BME280;49564;59.406;24.724;2023-11-18T11:22:37;101983.86;;;3.82;29.80
63433;BME280;49564;59.406;24.724;2023-11-18T11:25:13;101985.10;;;3.55;29.94
63433;BME280;49564;59.406;24.724;2023-11-18T11:27:48;101985.64;;;3.53;29.98
63433;BME280;49564;59.406;24.724;2023-11-18T11:30:22;101983.48;;;3.54;29.85
63433;BME280;49564;59.406;24.724;2023-11-18T11:32:51;101987.15;;;3.56;29.91
63433;BME280;49564;59.406;24.724;2023-11-18T11:35:23;101987.69;;;3.55;29.96
63433;BME280;49564;59.406;24.724;2023-11-18T11:37:52;101986.30;;;3.60;29.96
63433;BME280;49564;59.406;24.724;2023-11-18T11:40:21;101985.65;;;3.60;29.93
63433;BME280;49564;59.406;24.724;2023-11-18T11:42:51;101982.08;;;3.57;29.86
63433;BME280;49564;59.406;24.724;2023-11-18T11:45:19;101983.97;;;3.79;29.81
63433;BME280;49564;59.406;24.724;2023-11-18T11:47:48;101984.88;;;3.73;29.86
63433;BME280;49564;59.406;24.724;2023-11-18T11:50:24;101984.06;;;3.44;29.95
63433;BME280;49564;59.406;24.724;2023-11-18T11:52:56;101984.53;;;3.41;30.00
63433;BME280;49564;59.406;24.724;2023-11-18T11:55:44;101988.10;;;3.41;30.00
63433;BME280;49564;59.406;24.724;2023-11-18T11:58:31;101987.00;;;3.33;30.06
63433;BME280;49564;59.406;24.724;2023-11-18T12:01:00;101988.36;;;3.35;30.06
63433;BME280;49564;59.406;24.724;2023-11-18T12:03:27;101984.63;;;3.34;30.22
63433;BME280;49564;59.406;24.724;2023-11-18T12:05:55;101981.82;;;3.34;30.27
63433;BME280;49564;59.406;24.724;2023-11-18T12:08:23;101980.41;;;3.31;30.31
63433;BME280;49564;59.406;24.724;2023-11-18T12:10:51;101978.14;;;3.30;30.40
63433;BME280;49564;59.406;24.724;2023-11-18T12:13:20;101982.51;;;3.26;30.44
63433;BME280;49564;59.406;24.724;2023-11-18T12:15:48;101980.44;;;3.21;30.54
63433;BME280;49564;59.406;24.724;2023-11-18T12:18:16;101980.45;;;3.22;30.52
63433;BME280;49564;59.406;24.724;2023-11-18T12:20:44;101976.82;;;3.20;30.58
63433;BME280;49564;59.406;24.724;2023-11-18T12:23:12;101972.13;;;3.21;30.62
63433;BME280;49564;59.406;24.724;2023-11-18T12:25:39;101970.94;;;3.41;30.61
63433;BME280;49564;59.406;24.724;2023-11-18T12:28:09;101966.50;;;3.16;30.70
63433;BME280;49564;59.406;24.724;2023-11-18T12:30:41;101965.95;;;3.11;30.70
63433;BME280;49564;59.406;24.724;2023-11-18T12:33:09;101963.26;;;3.12;30.71
63433;BME280;49564;59.406;24.724;2023-11-18T12:35:52;101966.39;;;3.13;30.72
63433;BME280;49564;59.406;24.724;2023-11-18T12:38:47;101976.36;;;3.08;30.84
63433;BME280;49564;59.406;24.724;2023-11-18T12:41:33;101981.89;;;3.15;30.80
63433;BME280;49564;59.406;24.724;2023-11-18T12:44:15;101985.34;;;3.15;30.83
63433;BME280;49564;59.406;24.724;2023-11-18T12:46:49;101989.23;;;3.14;30.87
63433;BME280;49564;59.406;24.724;2023-11-18T12:49:17;101987.44;;;3.62;30.89
63433;BME280;49564;59.406;24.724;2023-11-18T12:51:45;101986.75;;;3.37;30.87
63433;BME280;49564;59.406;24.724;2023-11-18T12:54:13;101983.23;;;3.11;30.95
63433;BME280;49564;59.406;24.724;2023-11-18T12:56:40;101981.77;;;3.11;30.92